Airfield :
LOGIN :

Register | Disclaimer

   EN    FR    IT 

 










Legend :    VFR   Marginal VFR   IFR   Intensive IFR   Very Intensive IFR
Visi :
Ceiling :
>= 8 km
>= 3000ft
5 to 8 km
1000 to 3000 ft
1500m to 5 km
500 to 1000 ft
800 to 1500m
200 to 500 ft
< 800m
< 200 ft
Symbols :   Thunderstorms  Fog  Heavy snow  Heavy precipitations  Wind > 20 kt
SIGMETs :     Misc.  Thunderstorms  Icing  Turbulence  Mountain Waves  Volcanic Ashes






- Airport Elevation : 56 ft
- IATA code : BZR


LFMU - Beziers / Vias

CURRENT METAR :
  • 201300Z AUTO 14014KT 110V170 9999 OVC021 14/09 Q1009 TEMPO 15020G30KT

EXPIRED METARs :
  • 201230Z AUTO 14014G25KT 100V170 9999 OVC022 14/09 Q1009 NOSIG
  • 201200Z AUTO 14013KT 100V180 9999 OVC022 14/09 Q1010 TEMPO 15020G30KT
  • 201130Z AUTO 15014KT 110V180 9999 OVC022 14/09 Q1011 TEMPO 15020G30KT
  • 201100Z AUTO 15017G27KT 120V180 9999 OVC023 14/09 Q1011 NOSIG

TAF TAF LFMU
Valid from the 20 at 09:00 until the 21 at 09:00 UTC


200800Z 2009/2109 15012KT 9999 SCT020
TEMPO 2009/2023 15020G30KT
TEMPO 2015/2021 SHRA BKN018 FEW040TCU
BECMG 2023/2102 02010KT NSC
ATIS : +33 4 67 90 88 88



MET'MAP, your aeronautical weather chart ! - Copyright ORBIFLY December 2007 - Disclaimer

ORBIFLY MET'MAP TEAM :

Programming & Development : Alexandra Zaïnal
Concept & original design : Baudouin d'Aumeries
Assistance for programming : Marc-Olivier Méhu
Technical & hardware support : Manuel Goepfert

Contact : metmap@orbifly.com




SOURCES & CREDITS :

   NOAA